Time;durP1;ratioP1;P1;durP2;ratioP2;P2;SDS_P1;SDS_P2;PMS_P1;PMS_P2;Temp;Humidity;BMP_temperature;BMP_pressure;BME280_temperature;BME280_humidity;BME280_pressure;Samples;Min_cycle;Max_cycle;Signal;HPM_P1;HPM_P2
2023/04/22 00:01:04;;;;;;;2.30;1.67;;;14.10;82.50;;;;;;4877360;29;20490;-68
2023/04/22 00:03:32;;;;;;;2.73;2.00;;;14.10;82.60;;;;;;4879523;29;20561;-68
2023/04/22 00:06:01;;;;;;;2.47;1.80;;;14.10;82.60;;;;;;4877618;29;20460;-68
2023/04/22 00:08:30;;;;;;;2.67;2.10;;;14.10;82.50;;;;;;4900630;29;20457;-68
2023/04/22 00:10:58;;;;;;;2.00;1.50;;;14.10;82.60;;;;;;4898961;29;20999;-68
2023/04/22 00:13:28;;;;;;;2.37;2.17;;;14.10;82.60;;;;;;4878180;29;20498;-68
2023/04/22 00:15:56;;;;;;;2.20;1.77;;;14.10;83.90;;;;;;4906134;29;20473;-68
2023/04/22 00:18:25;;;;;;;1.80;1.40;;;14.10;82.60;;;;;;4902683;29;20466;-68
2023/04/22 00:20:53;;;;;;;2.57;2.00;;;14.10;82.60;;;;;;4894596;29;20451;-68
2023/04/22 00:23:22;;;;;;;2.70;2.03;;;14.10;82.60;;;;;;4898632;29;20510;-69
2023/04/22 00:25:51;;;;;;;2.37;1.93;;;14.10;82.50;;;;;;4864968;29;20906;-69
2023/04/22 00:28:19;;;;;;;3.50;1.73;;;14.10;82.60;;;;;;4889002;29;20514;-68
2023/04/22 00:30:49;;;;;;;2.20;1.70;;;14.10;82.50;;;;;;4878938;29;20495;-68
2023/04/22 00:33:17;;;;;;;2.40;1.73;;;14.10;82.60;;;;;;4902486;29;20497;-69
2023/04/22 00:35:46;;;;;;;2.40;1.70;;;14.10;82.60;;;;;;4894680;29;20864;-69
2023/04/22 00:38:15;;;;;;;2.13;1.83;;;14.10;82.60;;;;;;4902152;29;20474;-68
2023/04/22 00:40:43;;;;;;;2.00;1.50;;;14.10;82.60;;;;;;4896534;29;20487;-69
2023/04/22 00:43:13;;;;;;;4.00;1.90;;;14.10;82.60;;;;;;4888379;29;20855;-69
2023/04/22 00:45:43;;;;;;;3.30;1.50;;;14.10;82.50;;;;;;4902640;29;21052;-68
2023/04/22 00:48:13;;;;;;;2.13;1.60;;;14.10;82.60;;;;;;4881112;29;20490;-68
2023/04/22 00:50:42;;;;;;;2.30;1.80;;;14.10;83.10;;;;;;4889220;29;20829;-68
2023/04/22 00:53:10;;;;;;;2.90;1.80;;;14.10;82.50;;;;;;4862795;29;20532;-68
2023/04/22 00:55:38;;;;;;;2.53;1.77;;;14.10;82.60;;;;;;4903594;29;20446;-68
2023/04/22 00:58:08;;;;;;;2.20;1.83;;;14.10;82.60;;;;;;4899534;29;20458;-68
2023/04/22 01:00:36;;;;;;;1.83;1.40;;;14.10;82.70;;;;;;4900624;29;20483;-68
2023/04/22 01:03:06;;;;;;;2.23;1.83;;;14.10;82.60;;;;;;4891522;29;20471;-68
2023/04/22 01:05:36;;;;;;;2.13;1.63;;;14.10;82.70;;;;;;4897495;29;20479;-69
2023/04/22 01:08:05;;;;;;;2.70;2.10;;;14.10;84.00;;;;;;4867418;29;20482;-68
2023/04/22 01:10:36;;;;;;;2.10;1.70;;;14.10;82.70;;;;;;4872094;29;20455;-68
2023/04/22 01:13:05;;;;;;;4.47;2.37;;;14.00;82.50;;;;;;4880417;29;20450;-68
2023/04/22 01:15:33;;;;;;;2.33;2.00;;;14.10;82.70;;;;;;4900201;29;20502;-69
2023/04/22 01:18:02;;;;;;;2.50;1.90;;;14.00;82.60;;;;;;4889576;29;20882;-69
2023/04/22 01:20:30;;;;;;;2.13;1.77;;;14.00;82.60;;;;;;4879400;29;20445;-68
2023/04/22 01:23:04;;;;;;;2.77;2.10;;;14.00;82.60;;;;;;4892123;29;20874;-68
2023/04/22 01:25:34;;;;;;;2.90;1.60;;;14.00;82.70;;;;;;4879815;29;20498;-69
2023/04/22 01:28:03;;;;;;;2.70;2.23;;;14.00;82.80;;;;;;4877302;29;20510;-68
2023/04/22 01:30:32;;;;;;;2.37;1.80;;;14.00;82.80;;;;;;4879037;29;20534;-68
2023/04/22 01:33:00;;;;;;;2.70;1.97;;;14.00;82.90;;;;;;4895261;29;20518;-68
2023/04/22 01:35:35;;;;;;;2.90;1.87;;;14.00;83.00;;;;;;4896137;29;20761;-68
2023/04/22 01:38:04;;;;;;;3.40;2.40;;;14.00;83.10;;;;;;4881752;29;20482;-68
2023/04/22 01:40:35;;;;;;;3.60;2.07;;;14.00;83.00;;;;;;4895659;29;20445;-68
2023/04/22 01:43:03;;;;;;;2.80;1.80;;;14.00;83.00;;;;;;4896924;29;20447;-68
2023/04/22 01:45:33;;;;;;;2.60;2.17;;;14.00;83.00;;;;;;4881023;29;20439;-68
2023/04/22 01:48:02;;;;;;;2.43;1.80;;;14.00;83.00;;;;;;4900729;29;20482;-68
2023/04/22 01:50:30;;;;;;;2.73;1.67;;;14.00;83.00;;;;;;4871300;29;20444;-68
2023/04/22 01:52:59;;;;;;;2.63;2.03;;;14.00;83.10;;;;;;4897876;29;21051;-68
2023/04/22 01:55:28;;;;;;;2.83;1.70;;;14.00;83.00;;;;;;4901847;29;20467;-68
2023/04/22 01:57:58;;;;;;;2.90;2.23;;;14.00;83.10;;;;;;4876089;29;20521;-68
2023/04/22 02:00:26;;;;;;;3.43;2.47;;;14.00;83.00;;;;;;4871353;29;20461;-68
2023/04/22 02:02:54;;;;;;;2.80;2.13;;;13.90;82.90;;;;;;4904366;29;20869;-69
2023/04/22 02:05:24;;;;;;;2.80;2.17;;;13.90;83.00;;;;;;4875992;29;20817;-69
2023/04/22 02:07:53;;;;;;;2.97;2.43;;;13.90;83.00;;;;;;4892263;29;20510;-69
2023/04/22 02:10:22;;;;;;;2.80;2.30;;;13.90;83.00;;;;;;4873606;29;20450;-68
2023/04/22 02:12:50;;;;;;;2.87;2.43;;;13.90;83.10;;;;;;4891876;29;20472;-69
2023/04/22 02:15:21;;;;;;;2.27;2.07;;;13.90;83.10;;;;;;4902730;29;20472;-69
2023/04/22 02:17:54;;;;;;;2.23;1.80;;;13.90;83.10;;;;;;4887986;29;20933;-69
2023/04/22 02:20:22;;;;;;;2.97;2.13;;;13.90;83.10;;;;;;4898578;29;20500;-68
2023/04/22 02:22:51;;;;;;;2.97;2.20;;;13.90;83.10;;;;;;4889125;29;20530;-69
2023/04/22 02:25:20;;;;;;;2.70;2.43;;;13.90;83.10;;;;;;4875430;29;20446;-69
2023/04/22 02:27:50;;;;;;;2.37;2.00;;;13.90;83.30;;;;;;4891300;29;20478;-69
2023/04/22 02:30:20;;;;;;;3.77;2.47;;;13.90;83.40;;;;;;4884799;29;20833;-69
2023/04/22 02:32:49;;;;;;;2.90;2.60;;;13.90;83.40;;;;;;4893128;29;20562;-69
2023/04/22 02:35:17;;;;;;;2.57;2.37;;;13.90;83.50;;;;;;4869885;29;20995;-68
2023/04/22 02:37:46;;;;;;;2.40;1.80;;;13.90;83.40;;;;;;4900299;29;21023;-68
2023/04/22 02:40:15;;;;;;;2.70;2.50;;;13.90;83.40;;;;;;4873862;29;21039;-68
2023/04/22 02:42:43;;;;;;;3.07;2.30;;;13.90;83.40;;;;;;4871679;29;20514;-68
2023/04/22 02:45:11;;;;;;;2.90;2.60;;;13.80;83.30;;;;;;4870899;29;20443;-69
2023/04/22 02:47:42;;;;;;;3.50;2.23;;;13.90;83.40;;;;;;4889526;29;20443;-68
2023/04/22 02:50:11;;;;;;;3.00;2.30;;;13.80;83.40;;;;;;4870378;29;20865;-68
2023/04/22 02:52:39;;;;;;;3.37;2.20;;;13.80;83.40;;;;;;4875411;29;20498;-68
2023/04/22 02:55:09;;;;;;;2.80;2.40;;;13.80;83.40;;;;;;4885826;29;20475;-69
2023/04/22 02:57:38;;;;;;;2.73;2.33;;;13.80;83.50;;;;;;4873610;29;20478;-68
2023/04/22 03:00:08;;;;;;;3.17;2.77;;;13.80;83.40;;;;;;4895104;29;20450;-68
2023/04/22 03:02:37;;;;;;;2.63;2.07;;;13.90;83.50;;;;;;4899640;29;20491;-68
2023/04/22 03:05:19;;;;;;;3.73;3.17;;;13.80;83.60;;;;;;4871707;29;20447;-69
2023/04/22 03:07:48;;;;;;;3.23;2.40;;;13.80;83.60;;;;;;4898109;29;20504;-69
2023/04/22 03:10:17;;;;;;;2.63;2.20;;;13.80;83.60;;;;;;4885234;29;20823;-68
2023/04/22 03:12:46;;;;;;;3.43;2.70;;;13.80;83.70;;;;;;4872967;29;21097;-68
2023/04/22 03:15:14;;;;;;;3.03;2.73;;;13.80;83.80;;;;;;4868834;29;20483;-69
2023/04/22 03:17:45;;;;;;;3.30;2.77;;;13.80;83.70;;;;;;4891468;29;20472;-68
2023/04/22 03:20:15;;;;;;;3.20;2.57;;;13.80;83.80;;;;;;4863012;29;20469;-68
2023/04/22 03:22:45;;;;;;;2.77;2.30;;;13.80;84.00;;;;;;4875804;29;20505;-68
2023/04/22 03:25:15;;;;;;;5.13;3.40;;;13.80;84.00;;;;;;4896722;29;20861;-68
2023/04/22 03:27:49;;;;;;;2.43;1.60;;;13.80;84.10;;;;;;4887726;29;20573;-68
2023/04/22 03:30:18;;;;;;;4.10;3.03;;;13.80;84.00;;;;;;4905182;29;20448;-68
2023/04/22 03:32:47;;;;;;;3.40;2.90;;;13.80;84.00;;;;;;4877908;29;20841;-68
2023/04/22 03:35:20;;;;;;;3.40;3.10;;;13.80;84.10;;;;;;4896171;29;20458;-68
2023/04/22 03:37:52;;;;;;;2.83;2.47;;;13.80;84.20;;;;;;4895960;29;20466;-69
2023/04/22 03:40:26;;;;;;;2.87;2.67;;;13.80;84.20;;;;;;4875334;29;20442;-68
2023/04/22 03:42:55;;;;;;;3.00;1.93;;;13.80;84.20;;;;;;4886147;29;20570;-68
2023/04/22 03:45:24;;;;;;;3.10;2.37;;;13.80;84.00;;;;;;4884185;29;20535;-68
2023/04/22 03:48:10;;;;;;;3.33;2.23;;;13.80;83.90;;;;;;4868649;29;20464;-69
2023/04/22 03:50:44;;;;;;;2.77;2.13;;;13.80;83.90;;;;;;4884113;29;20450;-68
2023/04/22 03:53:15;;;;;;;2.67;2.10;;;13.80;83.90;;;;;;4898270;29;20456;-69
2023/04/22 03:55:44;;;;;;;3.10;2.60;;;13.80;83.80;;;;;;4883080;29;20487;-68
2023/04/22 03:58:14;;;;;;;2.77;2.40;;;13.80;83.80;;;;;;4897155;29;20496;-68
2023/04/22 04:00:43;;;;;;;2.73;2.47;;;13.80;83.80;;;;;;4877844;29;20461;-68
2023/04/22 04:03:16;;;;;;;4.13;2.10;;;13.80;83.90;;;;;;4872988;29;20475;-68
2023/04/22 04:05:48;;;;;;;2.60;2.10;;;13.80;83.90;;;;;;4900757;29;20723;-68
2023/04/22 04:08:18;;;;;;;4.20;2.67;;;13.80;83.90;;;;;;4884531;29;20469;-68
2023/04/22 04:10:46;;;;;;;3.17;2.87;;;13.80;83.80;;;;;;4887129;29;20442;-68
2023/04/22 04:13:16;;;;;;;3.03;2.73;;;13.80;85.10;;;;;;4871307;29;20620;-69
2023/04/22 04:15:58;;;;;;;3.73;2.60;;;13.80;83.80;;;;;;4883448;29;20513;-68
2023/04/22 04:18:29;;;;;;;4.33;3.67;;;13.80;84.00;;;;;;4881139;29;20474;-68
2023/04/22 04:20:58;;;;;;;3.10;2.80;;;13.70;83.80;;;;;;4896212;29;21002;-68
2023/04/22 04:23:31;;;;;;;2.60;2.13;;;13.70;83.80;;;;;;4906323;29;20505;-68
2023/04/22 04:26:01;;;;;;;2.70;2.40;;;13.80;84.00;;;;;;4894722;29;20485;-68
2023/04/22 04:28:31;;;;;;;3.30;2.73;;;13.70;83.80;;;;;;4895468;29;20458;-68
2023/04/22 04:31:01;;;;;;;3.67;2.60;;;13.80;83.90;;;;;;4891985;29;20894;-68
2023/04/22 04:33:31;;;;;;;3.13;2.40;;;13.80;84.00;;;;;;4908047;29;20474;-68
2023/04/22 04:36:00;;;;;;;2.70;2.40;;;13.70;83.90;;;;;;4894010;29;20463;-68
2023/04/22 04:38:34;;;;;;;2.80;2.60;;;13.70;83.90;;;;;;4866380;29;21097;-68
2023/04/22 04:41:02;;;;;;;3.13;2.43;;;13.70;83.90;;;;;;4890444;29;20563;-68
2023/04/22 04:43:32;;;;;;;3.50;3.17;;;13.70;83.90;;;;;;4879579;29;20475;-68
2023/04/22 04:46:11;;;;;;;2.63;2.20;;;13.70;83.90;;;;;;4901076;29;20515;-68
2023/04/22 04:48:41;;;;;;;3.33;2.37;;;13.70;84.00;;;;;;4879228;29;20474;-68
2023/04/22 04:51:10;;;;;;;2.47;2.10;;;13.70;84.10;;;;;;4886285;29;20497;-68
2023/04/22 04:53:49;;;;;;;3.83;1.97;;;13.70;84.10;;;;;;4879852;29;20530;-68
2023/04/22 04:56:17;;;;;;;3.37;2.77;;;13.70;84.10;;;;;;4886797;29;20478;-68
2023/04/22 04:58:47;;;;;;;3.33;3.03;;;13.70;84.20;;;;;;4896216;29;20462;-68
2023/04/22 05:01:22;;;;;;;3.47;3.17;;;13.70;84.40;;;;;;4903282;29;20465;-68
2023/04/22 05:03:51;;;;;;;3.40;3.00;;;13.60;84.40;;;;;;4899138;29;20482;-68
2023/04/22 05:06:21;;;;;;;2.87;2.57;;;13.60;84.60;;;;;;4894525;29;20447;-68
2023/04/22 05:08:56;;;;;;;4.10;3.10;;;13.60;84.70;;;;;;4896062;29;20565;-68
2023/04/22 05:11:24;;;;;;;3.03;2.73;;;13.60;84.70;;;;;;4872223;29;20550;-68
2023/04/22 05:13:54;;;;;;;3.37;2.63;;;13.60;84.70;;;;;;4869788;29;20470;-68
2023/04/22 05:16:29;;;;;;;3.67;3.37;;;13.60;84.60;;;;;;4892982;29;20511;-68
2023/04/22 05:18:58;;;;;;;3.40;3.10;;;13.60;84.80;;;;;;4879496;29;20573;-68
2023/04/22 05:21:27;;;;;;;2.60;1.87;;;13.60;84.90;;;;;;4898722;29;20480;-67
2023/04/22 05:23:57;;;;;;;3.13;2.77;;;13.60;84.80;;;;;;4883301;29;21013;-68
2023/04/22 05:26:25;;;;;;;2.87;2.67;;;13.60;84.80;;;;;;4898619;29;20546;-67
2023/04/22 05:28:54;;;;;;;3.20;2.60;;;13.60;84.80;;;;;;4888986;29;20523;-68
2023/04/22 05:31:22;;;;;;;3.47;2.83;;;13.60;84.90;;;;;;4889068;29;20527;-68
2023/04/22 05:33:52;;;;;;;2.80;2.37;;;13.60;85.10;;;;;;4883344;29;20479;-68
2023/04/22 05:36:21;;;;;;;2.83;2.53;;;13.60;84.80;;;;;;4867168;29;20909;-68
2023/04/22 05:38:49;;;;;;;3.10;2.30;;;13.60;85.90;;;;;;4881702;29;20493;-68
2023/04/22 05:41:19;;;;;;;3.10;1.97;;;13.60;84.60;;;;;;4905707;29;20455;-68
2023/04/22 05:43:48;;;;;;;2.67;2.27;;;13.60;84.70;;;;;;4869281;29;20478;-67
2023/04/22 05:46:18;;;;;;;3.20;2.63;;;13.60;84.90;;;;;;4882777;29;20473;-68
2023/04/22 05:48:48;;;;;;;2.50;2.30;;;13.60;85.30;;;;;;4880434;29;20574;-68
2023/04/22 05:51:42;;;;;;;3.30;2.37;;;13.60;85.50;;;;;;4868681;29;20522;-68
2023/04/22 05:54:13;;;;;;;2.60;1.87;;;13.60;85.70;;;;;;4877660;29;20479;-68
2023/04/22 05:56:42;;;;;;;2.57;2.37;;;13.60;85.20;;;;;;4891060;29;20561;-68
2023/04/22 05:59:11;;;;;;;2.43;2.00;;;13.60;85.40;;;;;;4874002;29;20482;-68
2023/04/22 06:01:39;;;;;;;2.17;1.97;;;13.60;85.20;;;;;;4881580;29;20489;-67
2023/04/22 06:04:10;;;;;;;3.90;1.97;;;13.60;85.80;;;;;;4878753;29;20473;-68
2023/04/22 06:06:39;;;;;;;3.20;2.30;;;13.60;85.60;;;;;;4890680;29;20451;-68
2023/04/22 06:09:08;;;;;;;2.20;2.00;;;13.60;85.40;;;;;;4873289;29;20943;-67
2023/04/22 06:11:36;;;;;;;3.13;2.50;;;13.60;86.40;;;;;;4893154;29;20572;-68
2023/04/22 06:14:06;;;;;;;3.10;2.80;;;13.60;86.80;;;;;;4865659;29;20948;-68
2023/04/22 06:16:35;;;;;;;2.60;2.30;;;13.60;86.80;;;;;;4900194;29;20478;-67
2023/04/22 06:19:05;;;;;;;2.70;2.10;;;13.60;86.40;;;;;;4904764;29;20548;-67
2023/04/22 06:21:35;;;;;;;2.27;1.77;;;13.60;85.80;;;;;;4894192;29;20480;-67
2023/04/22 06:24:04;;;;;;;2.83;1.80;;;13.60;86.10;;;;;;4878581;29;20930;-68
2023/04/22 06:26:36;;;;;;;2.57;2.37;;;13.60;86.30;;;;;;4875268;29;20450;-68
2023/04/22 06:29:06;;;;;;;2.77;1.90;;;13.60;86.30;;;;;;4890484;29;20487;-74
2023/04/22 06:31:37;;;;;;;3.87;2.40;;;13.60;86.00;;;;;;4885033;29;21078;-74
2023/04/22 06:34:06;;;;;;;2.90;2.70;;;13.60;86.20;;;;;;4873406;29;20487;-74
2023/04/22 06:36:36;;;;;;;2.40;2.20;;;13.60;86.80;;;;;;4869707;29;20551;-74
2023/04/22 06:39:06;;;;;;;2.60;1.97;;;13.60;86.80;;;;;;4869549;29;20581;-68
2023/04/22 06:41:34;;;;;;;2.80;2.60;;;13.60;86.80;;;;;;4889794;29;20493;-74
2023/04/22 06:44:12;;;;;;;3.47;2.07;;;13.70;87.00;;;;;;4878398;29;20477;-74
2023/04/22 06:47:05;;;;;;;2.30;1.90;;;13.70;87.80;;;;;;4882775;29;20441;-74
2023/04/22 06:49:43;;;;;;;3.07;2.23;;;13.70;88.00;;;;;;4899359;29;20518;-74
2023/04/22 06:52:27;;;;;;;2.30;1.60;;;13.70;87.50;;;;;;4893778;29;20513;-74
2023/04/22 06:54:58;;;;;;;1.90;1.60;;;13.70;86.90;;;;;;4900541;29;20450;-74
2023/04/22 06:57:27;;;;;;;2.10;1.80;;;13.70;87.00;;;;;;4868592;29;20473;-74
2023/04/22 06:59:57;;;;;;;2.20;1.80;;;13.70;86.40;;;;;;4895208;29;21030;-74
2023/04/22 07:02:27;;;;;;;2.20;1.83;;;13.70;86.30;;;;;;4890760;29;20482;-74
2023/04/22 07:04:55;;;;;;;10.67;2.20;;;13.80;85.90;;;;;;4870767;29;20998;-74
2023/04/22 07:07:24;;;;;;;2.50;2.03;;;13.80;85.60;;;;;;4890189;29;20458;-73
2023/04/22 07:09:53;;;;;;;2.60;2.30;;;13.80;85.50;;;;;;4893207;29;20474;-74
2023/04/22 07:12:23;;;;;;;1.87;1.53;;;13.80;85.20;;;;;;4872327;29;20597;-74
2023/04/22 07:14:53;;;;;;;2.10;1.70;;;13.80;85.20;;;;;;4875702;29;20474;-74
2023/04/22 07:17:23;;;;;;;2.37;2.03;;;13.80;85.10;;;;;;4887370;29;20476;-74
2023/04/22 07:19:52;;;;;;;2.10;1.63;;;13.80;85.00;;;;;;4887318;29;20459;-74
2023/04/22 07:22:21;;;;;;;3.27;2.07;;;13.90;85.00;;;;;;4875263;29;20477;-74
2023/04/22 07:24:49;;;;;;;2.40;2.00;;;13.90;84.90;;;;;;4891265;29;20872;-74
2023/04/22 07:27:17;;;;;;;2.23;1.83;;;13.90;85.10;;;;;;4866261;29;20546;-74
2023/04/22 07:29:46;;;;;;;2.37;1.90;;;13.90;84.80;;;;;;4895154;29;21012;-74
2023/04/22 07:32:15;;;;;;;1.80;1.47;;;13.90;84.80;;;;;;4872699;29;20554;-74
2023/04/22 07:34:48;;;;;;;3.23;2.20;;;13.90;84.70;;;;;;4893170;29;21051;-74
2023/04/22 07:37:16;;;;;;;2.40;1.77;;;13.90;84.50;;;;;;4874932;29;20479;-74
2023/04/22 07:39:44;;;;;;;2.40;1.50;;;13.90;84.60;;;;;;4894653;29;20532;-74
2023/04/22 07:42:12;;;;;;;3.00;2.10;;;13.90;84.50;;;;;;4879074;29;20502;-74
2023/04/22 07:44:41;;;;;;;2.10;1.63;;;13.90;84.50;;;;;;4870342;29;20930;-74
2023/04/22 07:47:09;;;;;;;1.80;1.37;;;14.00;84.40;;;;;;4883595;29;20531;-74
2023/04/22 07:49:38;;;;;;;2.50;2.10;;;14.00;84.20;;;;;;4875069;29;20482;-74
2023/04/22 07:52:08;;;;;;;3.40;2.20;;;14.00;84.20;;;;;;4859708;29;20947;-74
2023/04/22 07:54:36;;;;;;;2.30;1.97;;;14.00;84.00;;;;;;4893063;29;20486;-74
2023/04/22 07:57:04;;;;;;;2.30;1.73;;;14.00;84.10;;;;;;4877654;29;20665;-74
2023/04/22 07:59:32;;;;;;;2.13;1.93;;;14.00;84.10;;;;;;4893429;29;20590;-74
2023/04/22 08:02:01;;;;;;;2.33;1.80;;;14.00;84.10;;;;;;4897563;29;20541;-67
2023/04/22 08:04:29;;;;;;;2.43;1.67;;;14.00;84.10;;;;;;4896565;29;20577;-74
2023/04/22 08:06:58;;;;;;;2.30;1.70;;;14.10;84.00;;;;;;4892211;29;20502;-74
2023/04/22 08:09:29;;;;;;;2.37;1.60;;;14.10;83.70;;;;;;4868287;29;20487;-74
2023/04/22 08:11:57;;;;;;;2.93;1.70;;;14.10;83.80;;;;;;4896095;29;20549;-74
2023/04/22 08:14:26;;;;;;;2.57;2.20;;;14.10;83.90;;;;;;4878905;29;20466;-74
2023/04/22 08:16:54;;;;;;;2.20;1.67;;;14.10;83.60;;;;;;4881951;29;20538;-74
2023/04/22 08:19:22;;;;;;;2.73;1.90;;;14.10;83.60;;;;;;4890096;29;21045;-67
2023/04/22 08:21:51;;;;;;;2.70;1.90;;;14.10;83.60;;;;;;4909282;29;20481;-67
2023/04/22 08:24:19;;;;;;;3.07;2.07;;;14.00;83.50;;;;;;4884521;29;20558;-67
2023/04/22 08:26:49;;;;;;;2.23;1.73;;;14.10;83.70;;;;;;4881904;29;21001;-74
2023/04/22 08:29:18;;;;;;;2.10;1.90;;;14.10;83.70;;;;;;4896598;29;20477;-74
2023/04/22 08:31:46;;;;;;;2.47;1.83;;;14.10;83.80;;;;;;4867356;29;20509;-74
2023/04/22 08:34:14;;;;;;;2.13;1.70;;;14.10;83.80;;;;;;4886382;29;20479;-74
2023/04/22 08:36:43;;;;;;;2.10;1.80;;;14.10;83.80;;;;;;4893662;29;20451;-74
2023/04/22 08:39:11;;;;;;;3.50;2.00;;;14.10;83.60;;;;;;4880795;29;20497;-74
2023/04/22 08:41:40;;;;;;;2.20;1.60;;;14.10;83.50;;;;;;4872249;29;20490;-74
2023/04/22 08:44:10;;;;;;;2.60;1.87;;;14.10;83.30;;;;;;4876957;29;20630;-67
2023/04/22 08:46:39;;;;;;;2.10;1.50;;;14.10;83.20;;;;;;4898020;29;20443;-67
2023/04/22 08:49:07;;;;;;;2.20;1.90;;;14.10;83.30;;;;;;4892678;29;20471;-67
2023/04/22 08:51:36;;;;;;;2.80;1.93;;;14.10;83.30;;;;;;4893947;29;20558;-67
2023/04/22 08:54:05;;;;;;;2.50;2.03;;;14.10;83.40;;;;;;4878029;29;20469;-69
2023/04/22 08:56:35;;;;;;;2.83;1.70;;;14.10;83.60;;;;;;4908822;29;20447;-69
2023/04/22 08:59:04;;;;;;;2.77;2.13;;;14.30;82.80;;;;;;4899195;29;20572;-69
2023/04/22 09:01:34;;;;;;;3.50;2.53;;;14.50;82.90;;;;;;4900494;29;20568;-69
2023/04/22 09:04:04;;;;;;;3.37;2.80;;;14.70;82.70;;;;;;4883989;29;20902;-69
2023/04/22 09:06:33;;;;;;;2.90;2.47;;;14.90;82.20;;;;;;4885470;29;20447;-68
2023/04/22 09:09:01;;;;;;;6.23;2.53;;;14.90;82.10;;;;;;4889692;29;20813;-67
2023/04/22 09:11:30;;;;;;;3.03;2.60;;;15.00;82.10;;;;;;4879077;29;20482;-67
2023/04/22 09:13:59;;;;;;;3.10;2.70;;;15.00;81.40;;;;;;4887520;29;20476;-67
2023/04/22 09:16:30;;;;;;;2.77;2.20;;;14.90;81.70;;;;;;4896221;29;20993;-66
2023/04/22 09:19:00;;;;;;;4.50;2.57;;;14.80;82.00;;;;;;4879611;29;20478;-67
2023/04/22 09:21:32;;;;;;;3.27;2.30;;;14.70;82.70;;;;;;4877578;29;20593;-67
2023/04/22 09:24:01;;;;;;;3.33;2.20;;;14.60;82.70;;;;;;4874838;29;20475;-66
2023/04/22 09:26:31;;;;;;;2.73;2.10;;;14.50;82.70;;;;;;4884675;29;20954;-67
2023/04/22 09:29:00;;;;;;;2.23;2.00;;;14.50;83.00;;;;;;4890420;29;20469;-67
2023/04/22 09:31:28;;;;;;;3.30;2.10;;;14.50;83.30;;;;;;4895639;29;20818;-67
2023/04/22 09:33:59;;;;;;;4.00;2.40;;;14.40;83.30;;;;;;4874740;29;20498;-67
2023/04/22 09:36:29;;;;;;;2.87;2.20;;;14.40;83.50;;;;;;4888723;29;20460;-74
2023/04/22 09:38:58;;;;;;;3.47;3.03;;;14.40;83.50;;;;;;4878624;29;20458;-73
2023/04/22 09:41:28;;;;;;;3.70;2.47;;;14.30;83.70;;;;;;4883542;29;21021;-73
2023/04/22 09:43:57;;;;;;;3.33;2.30;;;14.30;83.80;;;;;;4878589;29;20486;-74
2023/04/22 09:46:27;;;;;;;4.53;3.00;;;14.30;83.80;;;;;;4882493;29;20447;-73
2023/04/22 09:48:57;;;;;;;2.93;2.60;;;14.30;84.00;;;;;;4864519;29;20487;-73
2023/04/22 09:51:28;;;;;;;3.77;2.10;;;14.40;84.10;;;;;;4867380;29;20483;-73
2023/04/22 09:54:03;;;;;;;4.60;2.73;;;14.30;83.90;;;;;;4882997;29;20892;-74
2023/04/22 09:56:42;;;;;;;3.27;2.63;;;14.30;83.80;;;;;;4878170;29;20462;-74
2023/04/22 09:59:10;;;;;;;3.20;2.57;;;14.30;84.00;;;;;;4895021;29;20474;-73
2023/04/22 10:01:40;;;;;;;3.30;2.43;;;14.30;84.20;;;;;;4868894;29;20542;-74
2023/04/22 10:04:09;;;;;;;2.67;2.13;;;14.30;84.00;;;;;;4872242;29;20479;-74
2023/04/22 10:06:39;;;;;;;2.97;2.40;;;14.30;84.00;;;;;;4874514;29;20451;-73
2023/04/22 10:09:08;;;;;;;3.93;2.27;;;14.30;84.20;;;;;;4880301;29;20459;-73
2023/04/22 10:11:37;;;;;;;2.50;2.30;;;14.30;84.20;;;;;;4902069;29;20493;-73
2023/04/22 10:14:05;;;;;;;3.53;2.40;;;14.20;84.30;;;;;;4893154;29;20477;-74
2023/04/22 10:16:35;;;;;;;3.53;2.60;;;14.20;84.30;;;;;;4870873;29;20443;-74
2023/04/22 10:19:06;;;;;;;2.67;2.40;;;14.20;84.20;;;;;;4894040;29;21046;-73
2023/04/22 10:21:35;;;;;;;2.87;2.23;;;14.20;84.50;;;;;;4876633;29;20530;-73
2023/04/22 10:24:05;;;;;;;2.97;2.67;;;14.20;84.40;;;;;;4876569;29;20898;-67
2023/04/22 10:26:44;;;;;;;3.87;2.97;;;14.20;84.50;;;;;;4891345;29;21007;-67
2023/04/22 10:29:15;;;;;;;2.93;2.20;;;14.20;84.50;;;;;;4878863;29;20479;-74
2023/04/22 10:31:44;;;;;;;3.07;2.73;;;14.20;84.50;;;;;;4877272;29;20458;-73
2023/04/22 10:34:14;;;;;;;3.00;2.70;;;14.20;84.60;;;;;;4878200;29;20967;-73
2023/04/22 10:36:57;;;;;;;2.93;2.30;;;14.20;84.70;;;;;;4891029;29;20446;-74
2023/04/22 10:39:28;;;;;;;2.80;2.20;;;14.20;84.50;;;;;;4876444;29;21130;-73
2023/04/22 10:42:09;;;;;;;3.00;2.10;;;14.20;84.60;;;;;;4886985;29;20462;-74
2023/04/22 10:44:50;;;;;;;2.40;2.00;;;14.20;84.60;;;;;;4894082;29;20475;-74
2023/04/22 10:47:29;;;;;;;3.20;2.60;;;14.20;84.60;;;;;;4878684;29;20457;-73
2023/04/22 10:50:19;;;;;;;2.40;2.07;;;14.20;84.40;;;;;;4869472;29;20465;-73
2023/04/22 10:52:50;;;;;;;4.00;2.57;;;14.20;84.40;;;;;;4890469;29;20483;-74
2023/04/22 10:55:20;;;;;;;2.40;2.20;;;14.20;84.50;;;;;;4884673;29;20554;-74
2023/04/22 10:57:50;;;;;;;4.47;2.73;;;14.20;84.40;;;;;;4890062;29;20478;-73
2023/04/22 11:00:38;;;;;;;2.70;2.07;;;14.20;84.40;;;;;;4869222;29;20495;-74
2023/04/22 11:03:17;;;;;;;3.70;2.20;;;14.20;84.50;;;;;;4900055;29;20450;-73
2023/04/22 11:05:46;;;;;;;2.27;1.90;;;14.20;84.60;;;;;;4875422;29;20447;-73
2023/04/22 11:08:19;;;;;;;2.60;2.37;;;14.20;84.50;;;;;;4885231;29;20479;-73
2023/04/22 11:10:51;;;;;;;4.10;2.33;;;14.20;84.60;;;;;;4900672;29;21432;-74
2023/04/22 11:13:20;;;;;;;3.00;2.70;;;14.20;84.50;;;;;;4873706;29;20485;-67
2023/04/22 11:15:50;;;;;;;2.63;2.23;;;14.20;84.40;;;;;;4879203;29;20949;-67
2023/04/22 11:18:20;;;;;;;3.10;2.80;;;14.20;84.60;;;;;;4897838;29;20467;-67
2023/04/22 11:20:50;;;;;;;3.67;2.37;;;14.20;84.60;;;;;;4896742;29;20554;-68
2023/04/22 11:23:21;;;;;;;2.57;2.20;;;14.20;84.60;;;;;;4878779;29;20439;-68
2023/04/22 11:25:56;;;;;;;3.00;2.70;;;14.20;84.70;;;;;;4860550;29;20447;-73
2023/04/22 11:28:25;;;;;;;4.00;2.60;;;14.40;90.40;;;;;;4861484;29;20469;-66
2023/04/22 11:31:00;;;;;;;3.90;2.90;;;14.60;90.20;;;;;;4891342;29;20463;-73
2023/04/22 11:33:29;;;;;;;3.90;2.90;;;14.70;88.80;;;;;;4894008;29;20908;-68
2023/04/22 11:35:57;;;;;;;3.93;3.00;;;14.70;87.90;;;;;;4883518;29;20457;-68
2023/04/22 11:38:26;;;;;;;4.17;3.13;;;14.70;87.90;;;;;;4912647;29;20945;-74
2023/04/22 11:40:57;;;;;;;3.97;3.17;;;14.60;87.20;;;;;;4893282;29;20454;-73
2023/04/22 11:43:26;;;;;;;3.43;3.13;;;14.60;87.00;;;;;;4900876;29;20593;-74
2023/04/22 11:45:56;;;;;;;2.97;2.40;;;14.50;87.40;;;;;;4894518;29;20947;-74
2023/04/22 11:48:25;;;;;;;3.47;2.97;;;14.50;87.70;;;;;;4902204;29;20525;-74
2023/04/22 11:51:19;;;;;;;3.00;2.63;;;14.50;87.70;;;;;;4889494;29;20986;-74
2023/04/22 11:53:50;;;;;;;3.30;3.00;;;14.40;87.60;;;;;;4886007;29;20553;-74
2023/04/22 11:56:39;;;;;;;4.00;2.80;;;14.40;87.60;;;;;;4897269;29;20437;-74
2023/04/22 11:59:27;;;;;;;4.30;3.00;;;14.40;87.60;;;;;;4883027;29;20481;-73
2023/04/22 12:01:55;;;;;;;3.40;2.60;;;14.40;87.60;;;;;;4873145;29;20513;-73
2023/04/22 12:04:23;;;;;;;3.77;2.90;;;14.40;87.60;;;;;;4903609;29;20947;-73
2023/04/22 12:06:52;;;;;;;2.67;2.37;;;14.40;87.60;;;;;;4908364;29;20458;-74
2023/04/22 12:09:25;;;;;;;2.53;2.33;;;14.40;87.60;;;;;;4900829;29;20972;-73
2023/04/22 12:11:55;;;;;;;4.00;2.93;;;14.30;87.50;;;;;;4876999;29;20455;-73
2023/04/22 12:14:31;;;;;;;3.63;3.23;;;14.40;87.60;;;;;;4884373;29;21029;-74
2023/04/22 12:17:04;;;;;;;3.47;2.80;;;14.40;88.80;;;;;;4879510;29;20951;-74
2023/04/22 12:19:33;;;;;;;6.20;3.40;;;14.30;87.50;;;;;;4901024;29;20482;-73
2023/04/22 12:22:02;;;;;;;4.83;2.53;;;14.40;87.60;;;;;;4902738;29;20489;-74
2023/04/22 12:24:31;;;;;;;3.47;2.30;;;14.30;87.50;;;;;;4900362;29;20497;-74
2023/04/22 12:27:02;;;;;;;2.93;2.63;;;14.30;87.50;;;;;;4887950;29;20465;-74
2023/04/22 12:29:31;;;;;;;2.90;2.70;;;14.30;87.50;;;;;;4881307;29;20478;-73
2023/04/22 12:32:00;;;;;;;2.70;2.33;;;14.30;87.50;;;;;;4903284;29;20490;-73
2023/04/22 12:34:28;;;;;;;3.47;2.43;;;14.30;87.50;;;;;;4905768;29;20473;-67
2023/04/22 12:36:57;;;;;;;3.10;2.70;;;14.30;87.50;;;;;;4871382;29;20461;-67
2023/04/22 12:39:25;;;;;;;2.60;2.40;;;14.30;87.50;;;;;;4880001;29;20471;-67
2023/04/22 12:41:53;;;;;;;3.30;3.00;;;14.40;87.60;;;;;;4889822;29;20446;-67
2023/04/22 12:44:23;;;;;;;4.80;2.87;;;14.40;87.60;;;;;;4887365;29;20507;-67
2023/04/22 12:46:52;;;;;;;3.30;3.10;;;14.30;87.50;;;;;;4911835;29;20430;-68
2023/04/22 12:49:21;;;;;;;2.90;2.57;;;14.30;87.50;;;;;;4906202;29;20470;-67
2023/04/22 12:51:50;;;;;;;3.63;2.53;;;14.30;87.60;;;;;;4901652;29;20598;-68
2023/04/22 12:54:20;;;;;;;2.10;1.90;;;14.30;87.50;;;;;;4900932;29;20461;-68
2023/04/22 12:56:49;;;;;;;3.63;3.27;;;14.40;87.60;;;;;;4886902;29;20502;-67
2023/04/22 12:59:17;;;;;;;3.03;2.60;;;14.40;87.60;;;;;;4881683;29;21001;-74
2023/04/22 13:01:49;;;;;;;5.17;2.87;;;14.40;87.60;;;;;;4888228;29;20505;-74
2023/04/22 13:04:20;;;;;;;2.83;2.30;;;14.30;87.50;;;;;;4896655;29;20853;-74